createdAt,value
2018-04-29T00:01:55.478Z,64.83
2018-04-29T00:04:22.906Z,65.09
2018-04-29T00:06:50.646Z,65.08
2018-04-29T00:09:18.088Z,65.07
2018-04-29T00:11:45.551Z,65.12
2018-04-29T00:14:12.989Z,65.22
2018-04-29T00:16:40.445Z,65.45
2018-04-29T00:19:07.886Z,65.50
2018-04-29T00:21:35.345Z,65.18
2018-04-29T00:24:02.752Z,65.05
2018-04-29T00:26:30.205Z,65.36
2018-04-29T00:28:57.695Z,65.36
2018-04-29T00:31:25.167Z,65.44
2018-04-29T00:33:52.747Z,65.66
2018-04-29T00:36:20.190Z,65.72
2018-04-29T00:38:47.678Z,65.73
2018-04-29T00:41:15.118Z,65.79
2018-04-29T00:43:42.571Z,65.81
2018-04-29T00:46:10.346Z,65.60
2018-04-29T00:48:37.808Z,65.51
2018-04-29T00:51:05.259Z,65.46
2018-04-29T00:53:33.084Z,65.34
2018-04-29T00:56:00.541Z,65.31
2018-04-29T00:58:27.966Z,65.34
2018-04-29T01:00:55.378Z,65.47
2018-04-29T01:03:22.843Z,65.48
2018-04-29T01:05:50.277Z,65.43
2018-04-29T01:08:17.719Z,65.52
2018-04-29T01:10:45.167Z,65.74
2018-04-29T01:13:12.648Z,65.68
2018-04-29T01:15:40.141Z,65.71
2018-04-29T01:18:07.572Z,65.84
2018-04-29T01:20:35.004Z,66.03
2018-04-29T01:23:02.427Z,66.26
2018-04-29T01:25:29.838Z,66.28
2018-04-29T01:27:57.261Z,66.45
2018-04-29T01:30:24.663Z,66.92
2018-04-29T01:32:52.140Z,67.86
2018-04-29T01:35:19.631Z,68.67
2018-04-29T01:37:47.033Z,68.72
2018-04-29T01:40:14.500Z,68.54
2018-04-29T01:42:41.937Z,68.36
2018-04-29T01:45:09.397Z,68.17
2018-04-29T01:47:37.384Z,68.32
2018-04-29T01:50:04.828Z,68.44
2018-04-29T01:52:32.291Z,68.65
2018-04-29T01:54:59.830Z,68.68
2018-04-29T01:57:27.246Z,68.43
2018-04-29T01:59:54.703Z,68.37
2018-04-29T02:02:22.168Z,68.39
2018-04-29T02:04:49.567Z,68.46
2018-04-29T02:07:17.029Z,68.23
2018-04-29T02:09:44.565Z,68.24
2018-04-29T02:12:12.264Z,68.22
2018-04-29T02:14:39.686Z,68.07
2018-04-29T02:17:07.085Z,68.18
2018-04-29T02:19:34.652Z,67.66
2018-04-29T02:22:02.731Z,67.19
2018-04-29T02:24:30.281Z,67.24
2018-04-29T02:26:57.834Z,67.16
2018-04-29T02:29:25.295Z,66.98
2018-04-29T02:31:52.797Z,67.15
2018-04-29T02:34:20.291Z,67.52
2018-04-29T02:36:47.737Z,67.77
2018-04-29T02:39:15.220Z,68.20
2018-04-29T02:41:42.630Z,68.62
2018-04-29T02:44:10.122Z,68.81
2018-04-29T02:46:37.551Z,68.60
2018-04-29T02:49:04.948Z,68.14
2018-04-29T02:51:32.352Z,68.40
2018-04-29T02:54:00.614Z,67.91
2018-04-29T02:56:28.432Z,67.35
2018-04-29T02:58:55.847Z,67.08
2018-04-29T03:01:23.381Z,66.97
2018-04-29T03:03:50.849Z,67.07
2018-04-29T03:06:18.337Z,67.25
2018-04-29T03:08:45.805Z,67.33
2018-04-29T03:11:13.211Z,67.74
2018-04-29T03:13:40.642Z,68.11
2018-04-29T03:16:08.199Z,68.66
2018-04-29T03:18:35.646Z,68.61
2018-04-29T03:21:03.069Z,68.47
2018-04-29T03:23:30.610Z,68.67
2018-04-29T03:25:58.145Z,68.91
2018-04-29T03:28:25.954Z,68.76
2018-04-29T03:30:53.365Z,68.74
2018-04-29T03:33:20.787Z,68.67
2018-04-29T03:35:48.217Z,68.70
2018-04-29T03:38:15.723Z,68.90
2018-04-29T03:40:43.155Z,69.05
2018-04-29T03:43:10.555Z,69.08
2018-04-29T03:45:38.246Z,69.10
2018-04-29T03:48:05.669Z,69.31
2018-04-29T03:50:33.148Z,69.33
2018-04-29T03:53:00.547Z,69.48
2018-04-29T03:55:27.991Z,69.53
2018-04-29T03:58:07.180Z,69.66
2018-04-29T04:04:00.226Z,69.70
2018-04-29T04:06:27.725Z,69.93
2018-04-29T04:08:55.136Z,69.85
2018-04-29T04:11:22.644Z,69.90
2018-04-29T04:13:50.117Z,70.02
2018-04-29T04:16:17.920Z,70.09
2018-04-29T04:18:45.360Z,69.83
2018-04-29T04:21:12.844Z,69.64
2018-04-29T04:23:40.326Z,69.88
2018-04-29T04:26:07.722Z,69.79
2018-04-29T04:28:35.181Z,69.57
2018-04-29T04:31:02.602Z,69.67
2018-04-29T04:33:30.079Z,69.81
2018-04-29T04:35:57.540Z,69.84
2018-04-29T04:38:24.965Z,69.67
2018-04-29T04:40:52.363Z,69.40
2018-04-29T04:43:20.414Z,69.24
2018-04-29T04:45:47.893Z,69.10
2018-04-29T04:48:15.351Z,68.96
2018-04-29T04:50:43.385Z,69.11
2018-04-29T04:53:10.775Z,68.83
2018-04-29T04:55:38.209Z,68.43
2018-04-29T04:58:05.737Z,68.11
2018-04-29T05:00:33.146Z,68.14
2018-04-29T05:03:00.560Z,67.80
2018-04-29T05:05:28.071Z,67.51
2018-04-29T05:07:55.468Z,67.30
2018-04-29T05:10:22.889Z,67.30
2018-04-29T05:12:50.291Z,66.85
2018-04-29T05:15:17.781Z,66.49
2018-04-29T05:17:45.268Z,66.12
2018-04-29T05:20:12.676Z,65.39
2018-04-29T05:22:40.119Z,65.05
2018-04-29T05:25:07.536Z,64.68
2018-04-29T05:27:34.999Z,64.79
2018-04-29T05:30:02.463Z,64.38
2018-04-29T05:32:29.913Z,64.16
2018-04-29T05:34:57.392Z,63.74
2018-04-29T05:37:24.807Z,63.41
2018-04-29T05:39:52.289Z,63.89
2018-04-29T05:42:19.767Z,64.03
2018-04-29T05:44:47.585Z,63.79
2018-04-29T05:47:15.035Z,63.91
2018-04-29T05:49:42.480Z,64.38
2018-04-29T05:52:09.919Z,64.24
2018-04-29T05:54:37.356Z,64.17
2018-04-29T05:57:04.820Z,63.90
2018-04-29T05:59:32.248Z,63.28
2018-04-29T06:01:59.823Z,62.83
2018-04-29T06:04:27.603Z,62.68
2018-04-29T06:06:55.043Z,62.06
2018-04-29T06:09:22.483Z,61.58
2018-04-29T06:11:49.931Z,60.97
2018-04-29T06:14:17.376Z,60.16
2018-04-29T06:16:44.801Z,59.20
2018-04-29T06:19:12.256Z,58.38
2018-04-29T06:21:39.701Z,57.96
2018-04-29T06:24:07.164Z,57.14
2018-04-29T06:26:34.641Z,56.32
2018-04-29T06:29:02.124Z,55.19
2018-04-29T06:31:29.516Z,55.02
2018-04-29T06:33:56.941Z,54.65
2018-04-29T06:36:24.414Z,54.37
2018-04-29T06:38:51.893Z,54.66
2018-04-29T06:41:19.371Z,54.53
2018-04-29T06:43:46.757Z,54.08
2018-04-29T06:46:14.365Z,53.65
2018-04-29T06:48:41.764Z,53.26
2018-04-29T06:51:09.280Z,54.40
2018-04-29T06:53:36.778Z,54.75
2018-04-29T06:56:04.214Z,55.79
2018-04-29T06:58:31.688Z,55.83
2018-04-29T07:00:59.089Z,55.27
2018-04-29T07:03:26.560Z,54.22
2018-04-29T07:05:54.036Z,53.06
2018-04-29T07:08:21.518Z,52.17
2018-04-29T07:10:48.977Z,52.27
2018-04-29T07:13:16.432Z,51.71
2018-04-29T07:15:43.863Z,49.82
2018-04-29T07:18:11.270Z,48.24
2018-04-29T07:20:38.672Z,47.65
2018-04-29T07:23:06.099Z,46.62
2018-04-29T07:25:33.669Z,45.80
2018-04-29T07:28:01.081Z,45.12
2018-04-29T07:30:28.626Z,46.04
2018-04-29T07:32:56.084Z,46.15
2018-04-29T07:35:23.509Z,45.06
2018-04-29T07:37:50.995Z,45.68
2018-04-29T07:40:18.456Z,45.72
2018-04-29T07:42:45.913Z,45.23
2018-04-29T07:45:13.319Z,44.51
2018-04-29T07:47:40.841Z,44.15
2018-04-29T07:50:08.267Z,44.29
2018-04-29T07:52:35.970Z,43.67
2018-04-29T07:55:03.403Z,43.49
2018-04-29T07:57:30.801Z,42.93
2018-04-29T07:59:58.282Z,42.00
2018-04-29T08:02:25.700Z,42.61
2018-04-29T08:04:53.100Z,42.40
2018-04-29T08:07:20.602Z,42.15
2018-04-29T08:09:48.072Z,41.81
2018-04-29T08:12:15.549Z,41.43
2018-04-29T08:14:43.037Z,41.69
2018-04-29T08:17:10.507Z,42.73
2018-04-29T08:19:37.991Z,43.01
2018-04-29T08:22:05.428Z,42.69
2018-04-29T08:24:33.178Z,42.62
2018-04-29T08:27:00.632Z,42.08
2018-04-29T08:29:28.109Z,41.82
2018-04-29T08:31:55.690Z,40.09
2018-04-29T08:34:23.147Z,38.98
2018-04-29T08:36:50.556Z,38.64
2018-04-29T08:39:18.004Z,38.96
2018-04-29T08:41:45.493Z,39.34
2018-04-29T08:44:13.295Z,39.09
2018-04-29T08:46:40.715Z,40.08
2018-04-29T08:49:08.177Z,39.66
2018-04-29T08:51:35.651Z,40.04
2018-04-29T08:54:03.116Z,41.05
2018-04-29T08:56:30.627Z,41.09
2018-04-29T08:58:58.302Z,41.20
2018-04-29T09:01:25.785Z,42.23
2018-04-29T09:03:53.315Z,42.25
2018-04-29T09:06:20.667Z,42.22
2018-04-29T09:08:48.182Z,42.89
2018-04-29T09:11:15.615Z,43.12
2018-04-29T09:13:43.084Z,43.29
2018-04-29T09:16:10.521Z,43.47
2018-04-29T09:18:37.939Z,43.46
2018-04-29T09:21:05.419Z,43.91
2018-04-29T09:23:33.510Z,44.71
2018-04-29T09:26:00.971Z,44.48
2018-04-29T09:28:28.595Z,44.11
2018-04-29T09:30:56.025Z,43.82
2018-04-29T09:33:23.478Z,43.34
2018-04-29T09:35:50.944Z,43.27
2018-04-29T09:38:18.455Z,43.52
2018-04-29T09:40:45.900Z,43.62
2018-04-29T09:43:13.365Z,43.38
2018-04-29T09:45:40.766Z,43.50
2018-04-29T09:48:08.237Z,43.68
2018-04-29T09:50:35.672Z,43.81
2018-04-29T09:53:03.133Z,44.27
2018-04-29T09:55:30.736Z,44.22
2018-04-29T09:57:58.194Z,43.92
2018-04-29T10:00:26.606Z,43.46
2018-04-29T10:02:54.053Z,43.63
2018-04-29T10:05:21.679Z,43.71
2018-04-29T10:07:49.101Z,43.04
2018-04-29T10:10:16.545Z,42.39
2018-04-29T10:12:44.212Z,42.49
2018-04-29T10:15:11.687Z,42.04
2018-04-29T10:17:39.196Z,41.30
2018-04-29T10:20:06.661Z,41.70
2018-04-29T10:22:34.074Z,41.76
2018-04-29T10:25:01.897Z,41.28
2018-04-29T10:27:29.296Z,41.21
2018-04-29T10:29:56.864Z,40.84
2018-04-29T10:32:24.510Z,39.87
2018-04-29T10:34:51.885Z,39.54
2018-04-29T10:37:19.353Z,39.59
2018-04-29T10:39:46.951Z,39.00
2018-04-29T10:42:14.393Z,38.56
2018-04-29T10:44:41.852Z,38.49
2018-04-29T10:47:09.254Z,38.77
2018-04-29T10:49:36.688Z,38.35
2018-04-29T10:52:03.677Z,37.74
2018-04-29T10:54:31.112Z,37.83
2018-04-29T10:56:58.607Z,36.59
2018-04-29T10:59:26.271Z,36.68
2018-04-29T11:01:53.726Z,37.27
2018-04-29T11:04:21.300Z,37.01
2018-04-29T11:06:49.604Z,36.65
2018-04-29T11:09:17.097Z,37.23
2018-04-29T11:11:44.643Z,37.22
2018-04-29T11:14:12.159Z,37.14
2018-04-29T11:16:39.663Z,37.85
2018-04-29T11:19:07.124Z,38.08
2018-04-29T11:21:34.580Z,38.64
2018-04-29T11:24:02.526Z,38.40
2018-04-29T11:26:29.947Z,38.64
2018-04-29T11:28:57.453Z,38.78
2018-04-29T11:31:24.923Z,38.37
2018-04-29T11:33:52.403Z,37.61
2018-04-29T11:36:19.838Z,37.81
2018-04-29T11:38:47.940Z,37.99
2018-04-29T11:41:15.372Z,37.06
2018-04-29T11:43:42.398Z,36.63
2018-04-29T11:46:09.977Z,36.50
2018-04-29T11:48:37.492Z,35.80
2018-04-29T11:51:04.928Z,35.79
2018-04-29T11:53:32.371Z,35.23
2018-04-29T11:55:59.908Z,34.39
2018-04-29T11:58:27.432Z,34.25
2018-04-29T12:00:54.845Z,34.68
2018-04-29T12:03:22.326Z,34.80
2018-04-29T12:05:49.781Z,34.07
2018-04-29T12:08:17.236Z,33.95
2018-04-29T12:10:44.710Z,34.83
2018-04-29T12:13:12.125Z,35.56
2018-04-29T12:15:39.696Z,35.38
2018-04-29T12:18:07.197Z,34.83
2018-04-29T12:20:34.612Z,34.20
2018-04-29T12:23:02.082Z,33.43
2018-04-29T12:25:29.475Z,32.49
2018-04-29T12:27:56.946Z,31.76
2018-04-29T12:30:24.426Z,31.80
2018-04-29T12:32:53.084Z,32.13
2018-04-29T12:35:20.633Z,31.74
2018-04-29T12:37:48.073Z,31.68
2018-04-29T12:40:15.510Z,30.54
2018-04-29T12:42:42.980Z,30.62
2018-04-29T12:45:10.418Z,30.37
2018-04-29T12:47:37.869Z,29.73
2018-04-29T12:50:05.373Z,30.39
2018-04-29T12:52:32.800Z,29.86
2018-04-29T12:55:00.227Z,29.60
2018-04-29T12:57:27.632Z,29.36
2018-04-29T12:59:55.064Z,28.66
2018-04-29T13:02:22.492Z,28.70
2018-04-29T13:04:49.972Z,29.20
2018-04-29T13:07:17.398Z,29.54
2018-04-29T13:09:44.869Z,30.16
2018-04-29T13:12:12.292Z,30.14
2018-04-29T13:14:39.749Z,30.61
2018-04-29T13:17:07.325Z,31.39
2018-04-29T13:19:34.753Z,31.35
2018-04-29T13:22:02.196Z,31.45
2018-04-29T13:24:29.656Z,31.44
2018-04-29T13:26:57.108Z,31.01
2018-04-29T13:29:24.572Z,31.20
2018-04-29T13:31:52.012Z,31.79
2018-04-29T13:34:19.495Z,32.03
2018-04-29T13:36:47.104Z,32.34
2018-04-29T13:39:14.571Z,32.21
2018-04-29T13:41:42.051Z,31.54
2018-04-29T13:44:09.515Z,31.05
2018-04-29T13:46:36.998Z,30.85
2018-04-29T13:49:04.392Z,30.73
2018-04-29T13:51:31.846Z,30.22
2018-04-29T13:53:59.292Z,29.94
2018-04-29T13:56:26.687Z,29.85
2018-04-29T13:58:54.215Z,30.30
2018-04-29T14:01:21.660Z,30.91
2018-04-29T14:03:49.129Z,31.65
2018-04-29T14:06:16.568Z,32.10
2018-04-29T14:08:44.136Z,32.45
2018-04-29T14:11:11.655Z,32.03
2018-04-29T14:13:39.484Z,31.80
2018-04-29T14:16:07.047Z,31.70
2018-04-29T14:18:34.453Z,31.48
2018-04-29T14:21:01.904Z,31.79
2018-04-29T14:23:29.451Z,32.07
2018-04-29T14:25:56.887Z,32.50
2018-04-29T14:28:24.451Z,32.88
2018-04-29T14:30:51.933Z,33.07
2018-04-29T14:33:19.326Z,33.03
2018-04-29T14:35:46.778Z,32.53
2018-04-29T14:38:14.213Z,33.39
2018-04-29T14:40:41.707Z,32.63
2018-04-29T14:43:09.286Z,33.26
2018-04-29T14:45:36.739Z,33.49
2018-04-29T14:48:04.227Z,33.98
2018-04-29T14:50:31.691Z,34.48
2018-04-29T14:52:59.181Z,35.08
2018-04-29T14:55:26.781Z,35.45
2018-04-29T14:57:54.247Z,36.02
2018-04-29T15:00:21.679Z,36.42
2018-04-29T15:02:49.114Z,36.67
2018-04-29T15:05:16.533Z,37.76
2018-04-29T15:07:43.963Z,38.58
2018-04-29T15:10:11.458Z,40.37
2018-04-29T15:12:39.001Z,42.20
2018-04-29T15:15:07.403Z,42.42
2018-04-29T15:17:35.250Z,41.38
2018-04-29T15:20:02.783Z,40.80
2018-04-29T15:22:30.288Z,40.48
2018-04-29T15:24:57.764Z,39.79
2018-04-29T15:27:25.181Z,40.20
2018-04-29T15:29:52.627Z,41.97
2018-04-29T15:32:20.092Z,43.95
2018-04-29T15:34:47.523Z,44.72
2018-04-29T15:37:14.987Z,44.09
2018-04-29T15:39:42.438Z,43.89
2018-04-29T15:42:09.940Z,45.00
2018-04-29T15:44:37.385Z,46.19
2018-04-29T15:47:04.858Z,46.60
2018-04-29T15:49:32.314Z,47.15
2018-04-29T15:51:59.770Z,46.81
2018-04-29T15:54:27.380Z,46.91
2018-04-29T15:56:54.790Z,46.96
2018-04-29T15:59:22.262Z,47.20
2018-04-29T16:01:50.003Z,46.83
2018-04-29T16:04:17.431Z,46.43
2018-04-29T16:06:44.875Z,46.67
2018-04-29T16:09:12.326Z,46.70
2018-04-29T16:11:39.796Z,46.53
2018-04-29T16:14:07.330Z,46.77
2018-04-29T16:16:34.815Z,46.97
2018-04-29T16:19:02.285Z,47.53
2018-04-29T16:21:30.444Z,47.17
2018-04-29T16:23:57.908Z,47.31
2018-04-29T16:26:25.284Z,47.28
2018-04-29T16:28:52.720Z,47.07
2018-04-29T16:31:20.216Z,46.44
2018-04-29T16:33:47.718Z,45.96
2018-04-29T16:36:15.152Z,45.71
2018-04-29T16:38:42.588Z,45.39
2018-04-29T16:41:09.985Z,44.66
2018-04-29T16:43:37.514Z,44.99
2018-04-29T16:46:05.555Z,45.00
2018-04-29T16:48:33.004Z,45.23
2018-04-29T16:51:00.481Z,45.42
2018-04-29T16:53:28.635Z,45.05
2018-04-29T16:55:56.077Z,45.03
2018-04-29T16:58:23.487Z,44.54
2018-04-29T17:00:50.961Z,44.73
2018-04-29T17:03:18.647Z,44.88
2018-04-29T17:05:46.124Z,45.15
2018-04-29T17:08:13.577Z,45.59
2018-04-29T17:10:40.994Z,45.63
2018-04-29T17:13:09.308Z,46.10
2018-04-29T17:15:36.772Z,45.96
2018-04-29T17:18:04.186Z,46.15
2018-04-29T17:20:31.702Z,46.58
2018-04-29T17:22:59.291Z,47.10
2018-04-29T17:25:26.744Z,47.37
2018-04-29T17:27:54.251Z,47.64
2018-04-29T17:30:21.715Z,47.68
2018-04-29T17:32:49.159Z,48.09
2018-04-29T17:35:16.554Z,48.02
2018-04-29T17:37:43.966Z,47.62
2018-04-29T17:40:11.440Z,47.02
2018-04-29T17:42:39.077Z,46.39
2018-04-29T17:45:06.512Z,45.96
2018-04-29T17:47:33.957Z,45.24
2018-04-29T17:50:01.410Z,44.67
2018-04-29T17:52:28.799Z,44.75
2018-04-29T17:54:56.222Z,44.69
2018-04-29T17:57:23.701Z,44.94
2018-04-29T17:59:51.095Z,44.97
2018-04-29T18:02:18.617Z,45.13
2018-04-29T18:04:46.067Z,45.26
2018-04-29T18:07:13.554Z,45.40
2018-04-29T18:09:40.981Z,45.79
2018-04-29T18:12:08.443Z,45.98
2018-04-29T18:14:35.842Z,46.18
2018-04-29T18:17:03.276Z,46.43
2018-04-29T18:19:30.733Z,46.68
2018-04-29T18:21:58.345Z,46.83
2018-04-29T18:24:25.924Z,47.46
2018-04-29T18:26:53.432Z,48.24
2018-04-29T18:29:20.837Z,48.82
2018-04-29T18:31:48.373Z,49.33
2018-04-29T18:34:15.832Z,50.32
2018-04-29T18:36:43.309Z,50.94
2018-04-29T18:39:10.729Z,51.52
2018-04-29T18:41:38.206Z,52.02
2018-04-29T18:44:05.644Z,52.35
2018-04-29T18:46:33.102Z,53.45
2018-04-29T18:49:00.507Z,53.90
2018-04-29T18:51:28.104Z,54.33
2018-04-29T18:53:55.481Z,54.74
2018-04-29T18:56:22.938Z,55.11
2018-04-29T18:58:50.391Z,55.97
2018-04-29T19:01:17.868Z,56.17
2018-04-29T19:03:45.301Z,56.88
2018-04-29T19:06:12.781Z,57.71
2018-04-29T19:08:40.224Z,58.74
2018-04-29T19:11:07.622Z,59.36
2018-04-29T19:13:35.327Z,60.64
2018-04-29T19:16:02.727Z,60.35
2018-04-29T19:18:30.230Z,60.61
2018-04-29T19:20:57.704Z,60.79
2018-04-29T19:23:25.102Z,61.79
2018-04-29T19:25:52.519Z,62.66
2018-04-29T19:28:19.969Z,63.19
2018-04-29T19:30:47.427Z,64.46
2018-04-29T19:33:14.879Z,65.13
2018-04-29T19:35:42.300Z,65.84
2018-04-29T19:38:10.369Z,66.11
2018-04-29T19:40:37.821Z,66.54
2018-04-29T19:43:05.284Z,66.48
2018-04-29T19:45:32.689Z,66.52
2018-04-29T19:48:00.145Z,65.83
2018-04-29T19:50:27.584Z,64.88
2018-04-29T19:52:55.080Z,64.96
2018-04-29T19:55:22.581Z,66.33
2018-04-29T19:57:50.004Z,66.34
2018-04-29T20:00:18.104Z,66.15
2018-04-29T20:02:45.609Z,65.58
2018-04-29T20:05:13.054Z,67.56
2018-04-29T20:07:40.493Z,67.87
2018-04-29T20:10:07.893Z,68.53
2018-04-29T20:12:35.472Z,69.32
2018-04-29T20:15:02.893Z,69.76
2018-04-29T20:17:30.320Z,69.06
2018-04-29T20:19:57.759Z,69.48
2018-04-29T20:22:25.217Z,70.51
2018-04-29T20:24:52.614Z,71.31
2018-04-29T20:27:20.017Z,71.31
2018-04-29T20:29:47.494Z,71.54
2018-04-29T20:32:26.874Z,70.90
2018-04-29T20:34:54.359Z,70.81
2018-04-29T20:37:21.792Z,70.66
2018-04-29T20:39:49.223Z,71.02
2018-04-29T20:42:16.652Z,71.00
2018-04-29T20:44:44.051Z,70.51
2018-04-29T20:47:11.490Z,70.39
2018-04-29T20:49:38.912Z,70.10
2018-04-29T20:52:06.343Z,70.83
2018-04-29T20:54:33.807Z,71.61
2018-04-29T20:57:01.331Z,71.15
2018-04-29T20:59:28.814Z,71.76
2018-04-29T21:01:56.281Z,71.68
2018-04-29T21:04:23.734Z,71.38
2018-04-29T21:06:51.127Z,71.94
2018-04-29T21:09:18.674Z,72.29
2018-04-29T21:11:46.099Z,72.69
2018-04-29T21:14:13.551Z,72.26
2018-04-29T21:16:41.292Z,71.93
2018-04-29T21:19:08.760Z,72.15
2018-04-29T21:21:36.236Z,71.46
2018-04-29T21:24:03.933Z,71.21
2018-04-29T21:26:31.364Z,70.77
2018-04-29T21:28:58.917Z,70.85
2018-04-29T21:31:26.342Z,70.70
2018-04-29T21:33:53.744Z,70.68
2018-04-29T21:36:22.021Z,71.44
2018-04-29T21:38:50.128Z,71.84
2018-04-29T21:41:17.613Z,71.25
2018-04-29T21:43:45.036Z,72.15
2018-04-29T21:46:12.473Z,72.73
2018-04-29T21:48:39.955Z,72.69
2018-04-29T21:51:07.385Z,71.91
2018-04-29T21:53:34.834Z,71.14
2018-04-29T21:56:02.463Z,70.98
2018-04-29T21:58:29.935Z,71.11
2018-04-29T22:00:57.410Z,70.34
2018-04-29T22:03:24.811Z,70.32
2018-04-29T22:05:52.240Z,70.54
2018-04-29T22:08:19.678Z,70.35
2018-04-29T22:10:47.180Z,69.88
2018-04-29T22:13:14.666Z,69.90
2018-04-29T22:15:42.063Z,70.09
2018-04-29T22:18:09.547Z,70.14
2018-04-29T22:20:36.974Z,69.99
2018-04-29T22:23:04.364Z,69.39
2018-04-29T22:25:31.799Z,69.18
2018-04-29T22:27:59.444Z,69.22
2018-04-29T22:30:26.872Z,68.70
2018-04-29T22:32:54.297Z,69.58
2018-04-29T22:35:21.717Z,70.15
2018-04-29T22:37:49.239Z,70.21
2018-04-29T22:40:16.709Z,69.96
2018-04-29T22:42:44.142Z,69.57
2018-04-29T22:45:11.635Z,68.94
2018-04-29T22:47:39.063Z,69.02
2018-04-29T22:50:06.443Z,68.84
2018-04-29T22:52:33.904Z,68.60
2018-04-29T22:55:01.338Z,67.93
2018-04-29T22:57:28.728Z,68.60
2018-04-29T22:59:56.196Z,68.50
2018-04-29T23:02:23.639Z,68.92
2018-04-29T23:04:51.040Z,68.77
2018-04-29T23:07:18.502Z,68.48
2018-04-29T23:09:45.927Z,67.67
2018-04-29T23:12:13.366Z,67.72
2018-04-29T23:14:40.839Z,67.31
2018-04-29T23:17:08.360Z,68.46
2018-04-29T23:19:35.850Z,66.71
2018-04-29T23:22:03.316Z,66.42
2018-04-29T23:24:30.715Z,66.28
2018-04-29T23:26:58.118Z,65.95
2018-04-29T23:29:25.544Z,65.97
2018-04-29T23:31:53.005Z,66.14
2018-04-29T23:34:20.502Z,65.94
2018-04-29T23:36:47.900Z,66.48
2018-04-29T23:39:15.323Z,66.86
2018-04-29T23:41:42.835Z,66.99
2018-04-29T23:44:10.290Z,67.12
2018-04-29T23:46:37.695Z,66.51
2018-04-29T23:49:05.189Z,66.60
2018-04-29T23:51:32.662Z,66.17
2018-04-29T23:54:00.117Z,66.12
2018-04-29T23:56:27.550Z,65.83
2018-04-29T23:58:54.954Z,65.67
